sensor_id;sensor_type;location;lat;lon;timestamp;P1;durP1;ratioP1;P2;durP2;ratioP2
25615;SDS011;13482;48.234;13.006;2022-08-01T00:00:49;1.75;;;0.80;;
25615;SDS011;13482;48.234;13.006;2022-08-01T00:03:17;1.23;;;0.82;;
25615;SDS011;13482;48.234;13.006;2022-08-01T00:05:44;1.23;;;0.85;;
25615;SDS011;13482;48.234;13.006;2022-08-01T00:08:12;2.15;;;1.10;;
25615;SDS011;13482;48.234;13.006;2022-08-01T00:10:40;1.10;;;0.75;;
25615;SDS011;13482;48.234;13.006;2022-08-01T00:13:07;1.45;;;0.80;;
25615;SDS011;13482;48.234;13.006;2022-08-01T00:15:35;0.95;;;0.80;;
25615;SDS011;13482;48.234;13.006;2022-08-01T00:18:03;1.23;;;0.90;;
25615;SDS011;13482;48.234;13.006;2022-08-01T00:20:30;1.17;;;0.70;;
25615;SDS011;13482;48.234;13.006;2022-08-01T00:22:57;0.82;;;0.70;;
25615;SDS011;13482;48.234;13.006;2022-08-01T00:25:24;1.90;;;0.80;;
25615;SDS011;13482;48.234;13.006;2022-08-01T00:27:59;1.45;;;0.93;;
25615;SDS011;13482;48.234;13.006;2022-08-01T00:30:29;1.05;;;0.82;;
25615;SDS011;13482;48.234;13.006;2022-08-01T00:32:57;1.20;;;0.90;;
25615;SDS011;13482;48.234;13.006;2022-08-01T00:35:24;1.20;;;0.90;;
25615;SDS011;13482;48.234;13.006;2022-08-01T00:37:51;1.17;;;0.90;;
25615;SDS011;13482;48.234;13.006;2022-08-01T00:40:19;1.23;;;0.90;;
25615;SDS011;13482;48.234;13.006;2022-08-01T00:42:46;1.30;;;0.98;;
25615;SDS011;13482;48.234;13.006;2022-08-01T00:45:13;1.83;;;1.05;;
25615;SDS011;13482;48.234;13.006;2022-08-01T00:47:40;0.95;;;0.77;;
25615;SDS011;13482;48.234;13.006;2022-08-01T00:50:08;1.40;;;1.08;;
25615;SDS011;13482;48.234;13.006;2022-08-01T00:52:36;1.40;;;0.90;;
25615;SDS011;13482;48.234;13.006;2022-08-01T00:55:07;1.30;;;0.90;;
25615;SDS011;13482;48.234;13.006;2022-08-01T00:57:40;1.30;;;0.85;;
25615;SDS011;13482;48.234;13.006;2022-08-01T01:00:28;4.40;;;1.50;;
25615;SDS011;13482;48.234;13.006;2022-08-01T01:02:58;1.80;;;1.05;;
25615;SDS011;13482;48.234;13.006;2022-08-01T01:05:26;1.15;;;0.80;;
25615;SDS011;13482;48.234;13.006;2022-08-01T01:07:54;1.23;;;0.82;;
25615;SDS011;13482;48.234;13.006;2022-08-01T01:13:20;1.38;;;1.02;;
25615;SDS011;13482;48.234;13.006;2022-08-01T01:16:00;1.50;;;1.00;;
25615;SDS011;13482;48.234;13.006;2022-08-01T01:23:55;1.40;;;1.07;;
25615;SDS011;13482;48.234;13.006;2022-08-01T01:26:43;1.92;;;1.10;;
25615;SDS011;13482;48.234;13.006;2022-08-01T01:29:43;1.17;;;1.00;;
25615;SDS011;13482;48.234;13.006;2022-08-01T01:32:33;1.90;;;1.25;;
25615;SDS011;13482;48.234;13.006;2022-08-01T01:35:06;1.45;;;1.00;;
25615;SDS011;13482;48.234;13.006;2022-08-01T01:37:40;1.10;;;0.95;;
25615;SDS011;13482;48.234;13.006;2022-08-01T01:40:10;1.60;;;1.20;;
25615;SDS011;13482;48.234;13.006;2022-08-01T01:42:38;1.67;;;1.10;;
25615;SDS011;13482;48.234;13.006;2022-08-01T01:45:08;1.42;;;1.05;;
25615;SDS011;13482;48.234;13.006;2022-08-01T01:47:36;1.60;;;1.10;;
25615;SDS011;13482;48.234;13.006;2022-08-01T01:50:05;1.55;;;1.10;;
25615;SDS011;13482;48.234;13.006;2022-08-01T01:52:35;1.75;;;1.10;;
25615;SDS011;13482;48.234;13.006;2022-08-01T01:55:06;1.52;;;1.10;;
25615;SDS011;13482;48.234;13.006;2022-08-01T01:57:36;1.45;;;1.20;;
25615;SDS011;13482;48.234;13.006;2022-08-01T02:00:08;1.42;;;1.10;;
25615;SDS011;13482;48.234;13.006;2022-08-01T02:02:37;1.17;;;1.00;;
25615;SDS011;13482;48.234;13.006;2022-08-01T02:05:06;1.52;;;0.90;;
25615;SDS011;13482;48.234;13.006;2022-08-01T02:07:37;2.08;;;1.13;;
25615;SDS011;13482;48.234;13.006;2022-08-01T02:10:06;2.30;;;1.20;;
25615;SDS011;13482;48.234;13.006;2022-08-01T02:12:35;1.40;;;1.00;;
25615;SDS011;13482;48.234;13.006;2022-08-01T02:15:06;1.58;;;1.15;;
25615;SDS011;13482;48.234;13.006;2022-08-01T02:17:37;1.92;;;1.10;;
25615;SDS011;13482;48.234;13.006;2022-08-01T02:20:10;1.83;;;1.00;;
25615;SDS011;13482;48.234;13.006;2022-08-01T02:25:52;1.50;;;1.02;;
25615;SDS011;13482;48.234;13.006;2022-08-01T02:28:38;1.85;;;1.20;;
25615;SDS011;13482;48.234;13.006;2022-08-01T02:31:16;1.73;;;1.10;;
25615;SDS011;13482;48.234;13.006;2022-08-01T02:33:50;1.80;;;1.20;;
25615;SDS011;13482;48.234;13.006;2022-08-01T02:36:28;1.40;;;1.00;;
25615;SDS011;13482;48.234;13.006;2022-08-01T02:41:33;1.98;;;0.80;;
25615;SDS011;13482;48.234;13.006;2022-08-01T02:44:07;2.17;;;1.08;;
25615;SDS011;13482;48.234;13.006;2022-08-01T02:46:43;1.58;;;1.20;;
25615;SDS011;13482;48.234;13.006;2022-08-01T02:49:19;1.90;;;1.30;;
25615;SDS011;13482;48.234;13.006;2022-08-01T02:51:49;1.60;;;1.05;;
25615;SDS011;13482;48.234;13.006;2022-08-01T02:54:17;1.50;;;1.00;;
25615;SDS011;13482;48.234;13.006;2022-08-01T02:56:47;1.90;;;1.15;;
25615;SDS011;13482;48.234;13.006;2022-08-01T02:59:18;2.45;;;0.98;;
25615;SDS011;13482;48.234;13.006;2022-08-01T03:01:52;1.73;;;1.30;;
25615;SDS011;13482;48.234;13.006;2022-08-01T03:04:22;1.40;;;1.10;;
25615;SDS011;13482;48.234;13.006;2022-08-01T03:06:51;1.67;;;1.20;;
25615;SDS011;13482;48.234;13.006;2022-08-01T03:09:21;1.63;;;1.20;;
25615;SDS011;13482;48.234;13.006;2022-08-01T03:11:49;2.25;;;1.05;;
25615;SDS011;13482;48.234;13.006;2022-08-01T03:14:20;1.67;;;1.10;;
25615;SDS011;13482;48.234;13.006;2022-08-01T03:16:50;1.45;;;1.30;;
25615;SDS011;13482;48.234;13.006;2022-08-01T03:19:19;1.65;;;1.30;;
25615;SDS011;13482;48.234;13.006;2022-08-01T03:21:50;1.50;;;1.10;;
25615;SDS011;13482;48.234;13.006;2022-08-01T03:24:18;1.92;;;1.30;;
25615;SDS011;13482;48.234;13.006;2022-08-01T03:26:48;1.40;;;1.15;;
25615;SDS011;13482;48.234;13.006;2022-08-01T03:29:17;1.75;;;1.33;;
25615;SDS011;13482;48.234;13.006;2022-08-01T03:31:50;2.25;;;1.52;;
25615;SDS011;13482;48.234;13.006;2022-08-01T03:34:19;1.65;;;1.40;;
25615;SDS011;13482;48.234;13.006;2022-08-01T03:36:55;1.55;;;1.30;;
25615;SDS011;13482;48.234;13.006;2022-08-01T03:40:11;1.88;;;1.40;;
25615;SDS011;13482;48.234;13.006;2022-08-01T03:42:50;1.58;;;1.20;;
25615;SDS011;13482;48.234;13.006;2022-08-01T03:45:25;2.90;;;1.55;;
25615;SDS011;13482;48.234;13.006;2022-08-01T03:47:59;2.00;;;1.50;;
25615;SDS011;13482;48.234;13.006;2022-08-01T03:50:31;2.35;;;1.55;;
25615;SDS011;13482;48.234;13.006;2022-08-01T03:53:02;1.40;;;1.23;;
25615;SDS011;13482;48.234;13.006;2022-08-01T03:55:32;2.28;;;1.45;;
25615;SDS011;13482;48.234;13.006;2022-08-01T03:58:03;1.67;;;1.50;;
25615;SDS011;13482;48.234;13.006;2022-08-01T04:00:36;3.08;;;1.58;;
25615;SDS011;13482;48.234;13.006;2022-08-01T04:03:07;1.70;;;1.20;;
25615;SDS011;13482;48.234;13.006;2022-08-01T04:05:35;3.83;;;1.58;;
25615;SDS011;13482;48.234;13.006;2022-08-01T04:08:03;2.22;;;1.50;;
25615;SDS011;13482;48.234;13.006;2022-08-01T04:10:30;1.83;;;1.30;;
25615;SDS011;13482;48.234;13.006;2022-08-01T04:12:58;1.83;;;1.38;;
25615;SDS011;13482;48.234;13.006;2022-08-01T04:15:26;1.73;;;1.48;;
25615;SDS011;13482;48.234;13.006;2022-08-01T04:17:53;1.95;;;1.40;;
25615;SDS011;13482;48.234;13.006;2022-08-01T04:20:20;2.55;;;1.60;;
25615;SDS011;13482;48.234;13.006;2022-08-01T04:22:48;1.90;;;1.50;;
25615;SDS011;13482;48.234;13.006;2022-08-01T04:25:17;2.65;;;1.60;;
25615;SDS011;13482;48.234;13.006;2022-08-01T04:27:53;1.92;;;1.50;;
25615;SDS011;13482;48.234;13.006;2022-08-01T04:30:28;1.90;;;1.45;;
25615;SDS011;13482;48.234;13.006;2022-08-01T04:33:01;2.50;;;1.67;;
25615;SDS011;13482;48.234;13.006;2022-08-01T04:35:31;2.13;;;1.50;;
25615;SDS011;13482;48.234;13.006;2022-08-01T04:38:21;2.60;;;1.50;;
25615;SDS011;13482;48.234;13.006;2022-08-01T04:40:53;2.42;;;1.80;;
25615;SDS011;13482;48.234;13.006;2022-08-01T04:43:23;4.32;;;1.52;;
25615;SDS011;13482;48.234;13.006;2022-08-01T04:45:50;1.80;;;1.40;;
25615;SDS011;13482;48.234;13.006;2022-08-01T04:48:18;2.88;;;1.42;;
25615;SDS011;13482;48.234;13.006;2022-08-01T04:50:48;1.60;;;1.30;;
25615;SDS011;13482;48.234;13.006;2022-08-01T04:53:18;2.28;;;1.58;;
25615;SDS011;13482;48.234;13.006;2022-08-01T04:55:48;2.25;;;1.65;;
25615;SDS011;13482;48.234;13.006;2022-08-01T04:58:15;2.50;;;1.73;;
25615;SDS011;13482;48.234;13.006;2022-08-01T05:00:44;2.38;;;1.55;;
25615;SDS011;13482;48.234;13.006;2022-08-01T05:03:13;2.50;;;1.83;;
25615;SDS011;13482;48.234;13.006;2022-08-01T05:05:40;1.90;;;1.50;;
25615;SDS011;13482;48.234;13.006;2022-08-01T05:08:07;1.80;;;1.50;;
25615;SDS011;13482;48.234;13.006;2022-08-01T05:10:35;2.85;;;1.58;;
25615;SDS011;13482;48.234;13.006;2022-08-01T05:13:02;2.30;;;1.60;;
25615;SDS011;13482;48.234;13.006;2022-08-01T05:15:29;5.10;;;1.40;;
25615;SDS011;13482;48.234;13.006;2022-08-01T05:17:57;2.42;;;1.30;;
25615;SDS011;13482;48.234;13.006;2022-08-01T05:20:24;2.03;;;1.35;;
25615;SDS011;13482;48.234;13.006;2022-08-01T05:22:51;2.55;;;1.30;;
25615;SDS011;13482;48.234;13.006;2022-08-01T05:25:19;2.45;;;1.42;;
25615;SDS011;13482;48.234;13.006;2022-08-01T05:28:06;2.78;;;1.40;;
25615;SDS011;13482;48.234;13.006;2022-08-01T05:30:33;1.70;;;1.17;;
25615;SDS011;13482;48.234;13.006;2022-08-01T05:33:00;1.70;;;1.33;;
25615;SDS011;13482;48.234;13.006;2022-08-01T05:35:28;2.78;;;1.30;;
25615;SDS011;13482;48.234;13.006;2022-08-01T05:38:14;2.15;;;1.40;;
25615;SDS011;13482;48.234;13.006;2022-08-01T05:40:42;2.13;;;1.40;;
25615;SDS011;13482;48.234;13.006;2022-08-01T05:43:10;1.55;;;1.35;;
25615;SDS011;13482;48.234;13.006;2022-08-01T05:45:37;1.48;;;1.15;;
25615;SDS011;13482;48.234;13.006;2022-08-01T05:48:05;2.03;;;1.38;;
25615;SDS011;13482;48.234;13.006;2022-08-01T05:50:32;2.03;;;1.17;;
25615;SDS011;13482;48.234;13.006;2022-08-01T05:53:00;2.20;;;1.30;;
25615;SDS011;13482;48.234;13.006;2022-08-01T05:55:27;1.55;;;1.00;;
25615;SDS011;13482;48.234;13.006;2022-08-01T05:57:54;1.50;;;1.13;;
25615;SDS011;13482;48.234;13.006;2022-08-01T06:00:22;1.92;;;1.20;;
25615;SDS011;13482;48.234;13.006;2022-08-01T06:02:49;1.48;;;1.10;;
25615;SDS011;13482;48.234;13.006;2022-08-01T06:05:16;1.35;;;1.10;;
25615;SDS011;13482;48.234;13.006;2022-08-01T06:07:43;1.45;;;1.10;;
25615;SDS011;13482;48.234;13.006;2022-08-01T06:10:10;2.10;;;1.20;;
25615;SDS011;13482;48.234;13.006;2022-08-01T06:12:38;1.88;;;1.30;;
25615;SDS011;13482;48.234;13.006;2022-08-01T06:15:05;1.88;;;1.00;;
25615;SDS011;13482;48.234;13.006;2022-08-01T06:17:34;1.23;;;1.08;;
25615;SDS011;13482;48.234;13.006;2022-08-01T06:20:01;2.60;;;1.30;;
25615;SDS011;13482;48.234;13.006;2022-08-01T06:22:29;2.25;;;1.17;;
25615;SDS011;13482;48.234;13.006;2022-08-01T06:24:57;1.70;;;0.85;;
25615;SDS011;13482;48.234;13.006;2022-08-01T06:27:25;1.40;;;1.10;;
25615;SDS011;13482;48.234;13.006;2022-08-01T06:29:52;1.60;;;1.13;;
25615;SDS011;13482;48.234;13.006;2022-08-01T06:32:20;1.98;;;1.20;;
25615;SDS011;13482;48.234;13.006;2022-08-01T06:34:53;1.33;;;1.08;;
25615;SDS011;13482;48.234;13.006;2022-08-01T06:37:21;1.17;;;1.00;;
25615;SDS011;13482;48.234;13.006;2022-08-01T06:39:49;1.58;;;1.17;;
25615;SDS011;13482;48.234;13.006;2022-08-01T06:42:16;2.10;;;1.00;;
25615;SDS011;13482;48.234;13.006;2022-08-01T06:44:44;1.83;;;1.20;;
25615;SDS011;13482;48.234;13.006;2022-08-01T06:47:11;2.05;;;1.10;;
25615;SDS011;13482;48.234;13.006;2022-08-01T06:49:39;1.63;;;0.90;;
25615;SDS011;13482;48.234;13.006;2022-08-01T06:52:06;1.35;;;1.00;;
25615;SDS011;13482;48.234;13.006;2022-08-01T06:54:34;1.40;;;1.05;;
25615;SDS011;13482;48.234;13.006;2022-08-01T06:57:04;1.48;;;1.00;;
25615;SDS011;13482;48.234;13.006;2022-08-01T06:59:32;1.70;;;1.10;;
25615;SDS011;13482;48.234;13.006;2022-08-01T07:01:59;2.42;;;1.30;;
25615;SDS011;13482;48.234;13.006;2022-08-01T07:04:28;1.90;;;1.20;;
25615;SDS011;13482;48.234;13.006;2022-08-01T07:06:55;1.63;;;1.10;;
25615;SDS011;13482;48.234;13.006;2022-08-01T07:09:23;3.05;;;1.25;;
25615;SDS011;13482;48.234;13.006;2022-08-01T07:11:51;1.73;;;1.17;;
25615;SDS011;13482;48.234;13.006;2022-08-01T07:14:19;2.30;;;1.30;;
25615;SDS011;13482;48.234;13.006;2022-08-01T07:16:48;2.13;;;1.27;;
25615;SDS011;13482;48.234;13.006;2022-08-01T07:19:16;1.35;;;1.00;;
25615;SDS011;13482;48.234;13.006;2022-08-01T07:21:44;2.78;;;1.10;;
25615;SDS011;13482;48.234;13.006;2022-08-01T07:24:15;1.97;;;1.20;;
25615;SDS011;13482;48.234;13.006;2022-08-01T07:26:45;1.88;;;1.20;;
25615;SDS011;13482;48.234;13.006;2022-08-01T07:29:23;2.22;;;1.40;;
25615;SDS011;13482;48.234;13.006;2022-08-01T07:31:54;2.10;;;1.00;;
25615;SDS011;13482;48.234;13.006;2022-08-01T07:34:24;1.85;;;1.30;;
25615;SDS011;13482;48.234;13.006;2022-08-01T07:36:52;1.80;;;1.13;;
25615;SDS011;13482;48.234;13.006;2022-08-01T07:39:20;1.50;;;1.08;;
25615;SDS011;13482;48.234;13.006;2022-08-01T07:41:47;1.73;;;1.10;;
25615;SDS011;13482;48.234;13.006;2022-08-01T07:44:33;1.58;;;1.10;;
25615;SDS011;13482;48.234;13.006;2022-08-01T07:47:01;1.88;;;1.40;;
25615;SDS011;13482;48.234;13.006;2022-08-01T07:49:29;1.35;;;1.10;;
25615;SDS011;13482;48.234;13.006;2022-08-01T07:52:02;2.30;;;1.30;;
25615;SDS011;13482;48.234;13.006;2022-08-01T07:54:31;2.53;;;1.10;;
25615;SDS011;13482;48.234;13.006;2022-08-01T07:57:00;1.20;;;1.00;;
25615;SDS011;13482;48.234;13.006;2022-08-01T07:59:28;2.25;;;1.20;;
25615;SDS011;13482;48.234;13.006;2022-08-01T08:01:56;4.85;;;1.20;;
25615;SDS011;13482;48.234;13.006;2022-08-01T08:04:24;1.45;;;1.15;;
25615;SDS011;13482;48.234;13.006;2022-08-01T08:06:52;2.45;;;1.20;;
25615;SDS011;13482;48.234;13.006;2022-08-01T08:09:19;2.08;;;1.02;;
25615;SDS011;13482;48.234;13.006;2022-08-01T08:11:47;1.60;;;1.08;;
25615;SDS011;13482;48.234;13.006;2022-08-01T08:14:18;1.17;;;1.08;;
25615;SDS011;13482;48.234;13.006;2022-08-01T08:16:46;1.50;;;1.20;;
25615;SDS011;13482;48.234;13.006;2022-08-01T08:19:13;1.80;;;1.20;;
25615;SDS011;13482;48.234;13.006;2022-08-01T08:21:40;1.90;;;1.20;;
25615;SDS011;13482;48.234;13.006;2022-08-01T08:24:08;1.52;;;1.20;;
25615;SDS011;13482;48.234;13.006;2022-08-01T08:26:55;1.35;;;1.00;;
25615;SDS011;13482;48.234;13.006;2022-08-01T08:29:25;2.75;;;1.20;;
25615;SDS011;13482;48.234;13.006;2022-08-01T08:31:56;1.33;;;1.10;;
25615;SDS011;13482;48.234;13.006;2022-08-01T08:34:25;1.55;;;1.05;;
25615;SDS011;13482;48.234;13.006;2022-08-01T08:36:54;1.58;;;1.10;;
25615;SDS011;13482;48.234;13.006;2022-08-01T08:39:24;1.25;;;1.00;;
25615;SDS011;13482;48.234;13.006;2022-08-01T08:41:52;1.50;;;1.10;;
25615;SDS011;13482;48.234;13.006;2022-08-01T08:44:20;1.80;;;1.20;;
25615;SDS011;13482;48.234;13.006;2022-08-01T08:46:48;1.90;;;1.35;;
25615;SDS011;13482;48.234;13.006;2022-08-01T08:49:21;1.85;;;1.00;;
25615;SDS011;13482;48.234;13.006;2022-08-01T08:51:52;1.38;;;0.90;;
25615;SDS011;13482;48.234;13.006;2022-08-01T08:54:21;1.80;;;1.30;;
25615;SDS011;13482;48.234;13.006;2022-08-01T08:56:57;1.40;;;1.10;;
25615;SDS011;13482;48.234;13.006;2022-08-01T08:59:26;2.22;;;1.40;;
25615;SDS011;13482;48.234;13.006;2022-08-01T09:01:54;2.15;;;1.40;;
25615;SDS011;13482;48.234;13.006;2022-08-01T09:04:24;1.58;;;1.20;;
25615;SDS011;13482;48.234;13.006;2022-08-01T09:06:53;1.55;;;1.20;;
25615;SDS011;13482;48.234;13.006;2022-08-01T09:09:21;1.80;;;1.10;;
25615;SDS011;13482;48.234;13.006;2022-08-01T09:11:49;1.95;;;1.30;;
25615;SDS011;13482;48.234;13.006;2022-08-01T09:14:23;2.08;;;1.20;;
25615;SDS011;13482;48.234;13.006;2022-08-01T09:17:00;1.63;;;1.10;;
25615;SDS011;13482;48.234;13.006;2022-08-01T09:22:15;2.67;;;1.30;;
25615;SDS011;13482;48.234;13.006;2022-08-01T09:24:57;1.27;;;1.00;;
25615;SDS011;13482;48.234;13.006;2022-08-01T09:27:34;1.95;;;1.10;;
25615;SDS011;13482;48.234;13.006;2022-08-01T09:30:18;1.67;;;1.17;;
25615;SDS011;13482;48.234;13.006;2022-08-01T09:32:58;1.33;;;0.95;;
25615;SDS011;13482;48.234;13.006;2022-08-01T09:35:53;2.08;;;1.52;;
25615;SDS011;13482;48.234;13.006;2022-08-01T09:38:23;4.20;;;3.40;;
25615;SDS011;13482;48.234;13.006;2022-08-01T09:40:56;2.92;;;2.00;;
25615;SDS011;13482;48.234;13.006;2022-08-01T09:43:27;3.05;;;2.03;;
25615;SDS011;13482;48.234;13.006;2022-08-01T09:45:58;1.67;;;1.40;;
25615;SDS011;13482;48.234;13.006;2022-08-01T09:48:28;1.65;;;1.15;;
25615;SDS011;13482;48.234;13.006;2022-08-01T09:50:58;1.55;;;1.02;;
25615;SDS011;13482;48.234;13.006;2022-08-01T09:53:45;1.40;;;1.05;;
25615;SDS011;13482;48.234;13.006;2022-08-01T09:56:18;2.67;;;1.20;;
25615;SDS011;13482;48.234;13.006;2022-08-01T09:58:48;2.00;;;1.33;;
25615;SDS011;13482;48.234;13.006;2022-08-01T10:01:23;1.50;;;1.20;;
25615;SDS011;13482;48.234;13.006;2022-08-01T10:04:05;1.70;;;1.25;;
25615;SDS011;13482;48.234;13.006;2022-08-01T10:06:41;1.55;;;1.13;;
25615;SDS011;13482;48.234;13.006;2022-08-01T10:09:12;2.25;;;1.35;;
25615;SDS011;13482;48.234;13.006;2022-08-01T10:11:42;2.25;;;1.13;;
25615;SDS011;13482;48.234;13.006;2022-08-01T10:14:10;1.67;;;1.17;;
25615;SDS011;13482;48.234;13.006;2022-08-01T10:16:43;1.58;;;1.00;;
25615;SDS011;13482;48.234;13.006;2022-08-01T10:19:30;2.95;;;1.20;;
25615;SDS011;13482;48.234;13.006;2022-08-01T10:21:59;1.95;;;1.33;;
25615;SDS011;13482;48.234;13.006;2022-08-01T10:24:29;2.40;;;1.27;;
25615;SDS011;13482;48.234;13.006;2022-08-01T10:27:00;1.67;;;1.20;;
25615;SDS011;13482;48.234;13.006;2022-08-01T10:29:40;1.40;;;0.95;;
25615;SDS011;13482;48.234;13.006;2022-08-01T10:32:47;2.13;;;1.15;;
25615;SDS011;13482;48.234;13.006;2022-08-01T10:35:16;5.55;;;1.10;;
25615;SDS011;13482;48.234;13.006;2022-08-01T10:38:05;1.35;;;1.00;;
25615;SDS011;13482;48.234;13.006;2022-08-01T10:40:39;1.27;;;0.80;;
25615;SDS011;13482;48.234;13.006;2022-08-01T10:43:10;1.80;;;1.10;;
25615;SDS011;13482;48.234;13.006;2022-08-01T10:45:47;1.42;;;1.10;;
25615;SDS011;13482;48.234;13.006;2022-08-01T10:51:09;1.63;;;0.80;;
25615;SDS011;13482;48.234;13.006;2022-08-01T10:53:53;1.27;;;0.70;;
25615;SDS011;13482;48.234;13.006;2022-08-01T10:56:25;1.70;;;0.80;;
25615;SDS011;13482;48.234;13.006;2022-08-01T10:59:15;1.15;;;1.00;;
25615;SDS011;13482;48.234;13.006;2022-08-01T11:02:25;2.00;;;1.00;;
25615;SDS011;13482;48.234;13.006;2022-08-01T11:05:00;1.30;;;0.90;;
25615;SDS011;13482;48.234;13.006;2022-08-01T11:12:54;9.73;;;1.00;;
25615;SDS011;13482;48.234;13.006;2022-08-01T11:15:22;1.23;;;0.85;;
25615;SDS011;13482;48.234;13.006;2022-08-01T11:17:57;1.08;;;0.80;;
25615;SDS011;13482;48.234;13.006;2022-08-01T11:20:28;1.83;;;1.02;;
25615;SDS011;13482;48.234;13.006;2022-08-01T11:28:25;1.20;;;0.90;;
25615;SDS011;13482;48.234;13.006;2022-08-01T11:41:29;0.73;;;0.70;;
25615;SDS011;13482;48.234;13.006;2022-08-01T11:44:08;1.65;;;0.90;;
25615;SDS011;13482;48.234;13.006;2022-08-01T11:47:05;2.40;;;1.00;;
25615;SDS011;13482;48.234;13.006;2022-08-01T11:52:18;1.58;;;0.88;;
25615;SDS011;13482;48.234;13.006;2022-08-01T11:57:29;1.40;;;0.77;;
25615;SDS011;13482;48.234;13.006;2022-08-01T12:02:45;1.00;;;0.70;;
25615;SDS011;13482;48.234;13.006;2022-08-01T12:05:14;1.35;;;0.90;;
25615;SDS011;13482;48.234;13.006;2022-08-01T12:07:50;1.42;;;0.80;;
25615;SDS011;13482;48.234;13.006;2022-08-01T12:10:19;1.10;;;0.80;;
25615;SDS011;13482;48.234;13.006;2022-08-01T12:12:52;1.20;;;0.95;;
25615;SDS011;13482;48.234;13.006;2022-08-01T12:15:24;1.35;;;0.90;;
25615;SDS011;13482;48.234;13.006;2022-08-01T12:17:57;1.08;;;0.85;;
25615;SDS011;13482;48.234;13.006;2022-08-01T12:20:31;1.98;;;1.08;;
25615;SDS011;13482;48.234;13.006;2022-08-01T12:23:05;1.70;;;0.88;;
25615;SDS011;13482;48.234;13.006;2022-08-01T12:25:35;1.00;;;0.73;;
25615;SDS011;13482;48.234;13.006;2022-08-01T12:28:07;1.70;;;1.00;;
25615;SDS011;13482;48.234;13.006;2022-08-01T12:30:36;1.10;;;0.70;;
25615;SDS011;13482;48.234;13.006;2022-08-01T12:33:06;1.20;;;0.90;;
25615;SDS011;13482;48.234;13.006;2022-08-01T12:35:36;1.77;;;0.73;;
25615;SDS011;13482;48.234;13.006;2022-08-01T12:38:06;1.17;;;0.85;;
25615;SDS011;13482;48.234;13.006;2022-08-01T12:40:41;1.02;;;0.80;;
25615;SDS011;13482;48.234;13.006;2022-08-01T12:43:15;1.10;;;0.80;;
25615;SDS011;13482;48.234;13.006;2022-08-01T12:45:54;1.75;;;0.90;;
25615;SDS011;13482;48.234;13.006;2022-08-01T12:48:23;2.28;;;0.65;;
25615;SDS011;13482;48.234;13.006;2022-08-01T12:50:52;0.85;;;0.80;;
25615;SDS011;13482;48.234;13.006;2022-08-01T12:56:05;1.50;;;0.90;;
25615;SDS011;13482;48.234;13.006;2022-08-01T12:58:34;1.35;;;1.00;;
25615;SDS011;13482;48.234;13.006;2022-08-01T13:01:03;1.10;;;0.80;;
25615;SDS011;13482;48.234;13.006;2022-08-01T13:03:33;1.52;;;0.80;;
25615;SDS011;13482;48.234;13.006;2022-08-01T13:06:07;1.30;;;0.90;;
25615;SDS011;13482;48.234;13.006;2022-08-01T13:08:39;0.93;;;0.70;;
25615;SDS011;13482;48.234;13.006;2022-08-01T13:11:07;2.13;;;0.73;;
25615;SDS011;13482;48.234;13.006;2022-08-01T13:13:45;1.25;;;0.70;;
25615;SDS011;13482;48.234;13.006;2022-08-01T13:16:18;1.40;;;0.90;;
25615;SDS011;13482;48.234;13.006;2022-08-01T13:18:59;1.00;;;0.82;;
25615;SDS011;13482;48.234;13.006;2022-08-01T13:21:27;1.00;;;0.77;;
25615;SDS011;13482;48.234;13.006;2022-08-01T13:24:22;1.30;;;0.70;;
25615;SDS011;13482;48.234;13.006;2022-08-01T13:29:34;1.23;;;0.73;;
25615;SDS011;13482;48.234;13.006;2022-08-01T13:32:12;0.80;;;0.68;;
25615;SDS011;13482;48.234;13.006;2022-08-01T13:35:01;1.20;;;0.70;;
25615;SDS011;13482;48.234;13.006;2022-08-01T13:37:34;1.00;;;0.70;;
25615;SDS011;13482;48.234;13.006;2022-08-01T13:40:08;1.27;;;0.68;;
25615;SDS011;13482;48.234;13.006;2022-08-01T13:42:36;1.45;;;0.88;;
25615;SDS011;13482;48.234;13.006;2022-08-01T13:45:05;1.30;;;0.80;;
25615;SDS011;13482;48.234;13.006;2022-08-01T13:47:40;0.80;;;0.68;;
25615;SDS011;13482;48.234;13.006;2022-08-01T13:50:29;0.90;;;0.60;;
25615;SDS011;13482;48.234;13.006;2022-08-01T13:52:56;1.02;;;0.70;;
25615;SDS011;13482;48.234;13.006;2022-08-01T13:55:24;1.27;;;0.80;;
25615;SDS011;13482;48.234;13.006;2022-08-01T13:57:55;1.52;;;0.80;;
25615;SDS011;13482;48.234;13.006;2022-08-01T14:00:22;1.48;;;0.80;;
25615;SDS011;13482;48.234;13.006;2022-08-01T14:02:49;1.80;;;0.82;;
25615;SDS011;13482;48.234;13.006;2022-08-01T14:05:16;1.73;;;0.90;;
25615;SDS011;13482;48.234;13.006;2022-08-01T14:07:44;1.20;;;0.98;;
25615;SDS011;13482;48.234;13.006;2022-08-01T14:10:14;1.48;;;0.93;;
25615;SDS011;13482;48.234;13.006;2022-08-01T14:15:16;1.27;;;0.82;;
25615;SDS011;13482;48.234;13.006;2022-08-01T14:18:04;2.00;;;0.80;;
25615;SDS011;13482;48.234;13.006;2022-08-01T14:20:34;1.10;;;0.82;;
25615;SDS011;13482;48.234;13.006;2022-08-01T14:23:03;0.80;;;0.70;;
25615;SDS011;13482;48.234;13.006;2022-08-01T14:25:34;1.10;;;0.90;;
25615;SDS011;13482;48.234;13.006;2022-08-01T14:28:26;1.35;;;0.88;;
25615;SDS011;13482;48.234;13.006;2022-08-01T14:30:55;1.20;;;0.73;;
25615;SDS011;13482;48.234;13.006;2022-08-01T14:33:23;1.35;;;0.85;;
25615;SDS011;13482;48.234;13.006;2022-08-01T14:35:51;0.90;;;0.70;;
25615;SDS011;13482;48.234;13.006;2022-08-01T14:38:38;0.88;;;0.60;;
25615;SDS011;13482;48.234;13.006;2022-08-01T14:41:05;1.95;;;0.95;;
25615;SDS011;13482;48.234;13.006;2022-08-01T14:43:33;1.25;;;0.82;;
25615;SDS011;13482;48.234;13.006;2022-08-01T14:46:00;1.40;;;0.80;;
25615;SDS011;13482;48.234;13.006;2022-08-01T14:48:30;2.45;;;0.80;;
25615;SDS011;13482;48.234;13.006;2022-08-01T14:50:58;0.90;;;0.63;;
25615;SDS011;13482;48.234;13.006;2022-08-01T14:53:29;1.05;;;0.65;;
25615;SDS011;13482;48.234;13.006;2022-08-01T14:56:01;0.93;;;0.68;;
25615;SDS011;13482;48.234;13.006;2022-08-01T14:58:33;1.05;;;0.60;;
25615;SDS011;13482;48.234;13.006;2022-08-01T15:01:00;0.85;;;0.70;;
25615;SDS011;13482;48.234;13.006;2022-08-01T15:03:28;1.50;;;0.88;;
25615;SDS011;13482;48.234;13.006;2022-08-01T15:05:55;1.10;;;0.77;;
25615;SDS011;13482;48.234;13.006;2022-08-01T15:08:22;1.15;;;0.80;;
25615;SDS011;13482;48.234;13.006;2022-08-01T15:10:49;1.10;;;0.90;;
25615;SDS011;13482;48.234;13.006;2022-08-01T15:13:17;1.40;;;0.95;;
25615;SDS011;13482;48.234;13.006;2022-08-01T15:15:44;1.20;;;0.70;;
25615;SDS011;13482;48.234;13.006;2022-08-01T15:18:12;0.90;;;0.70;;
25615;SDS011;13482;48.234;13.006;2022-08-01T15:20:39;1.73;;;0.73;;
25615;SDS011;13482;48.234;13.006;2022-08-01T15:23:07;0.80;;;0.55;;
25615;SDS011;13482;48.234;13.006;2022-08-01T15:25:34;1.90;;;0.60;;
25615;SDS011;13482;48.234;13.006;2022-08-01T15:28:08;1.10;;;0.60;;
25615;SDS011;13482;48.234;13.006;2022-08-01T15:30:38;1.00;;;0.60;;
25615;SDS011;13482;48.234;13.006;2022-08-01T15:33:06;1.15;;;0.70;;
25615;SDS011;13482;48.234;13.006;2022-08-01T15:35:33;1.00;;;0.70;;
25615;SDS011;13482;48.234;13.006;2022-08-01T15:38:01;0.98;;;0.63;;
25615;SDS011;13482;48.234;13.006;2022-08-01T15:40:29;1.02;;;0.60;;
25615;SDS011;13482;48.234;13.006;2022-08-01T15:43:00;0.93;;;0.60;;
25615;SDS011;13482;48.234;13.006;2022-08-01T15:45:29;0.90;;;0.55;;
25615;SDS011;13482;48.234;13.006;2022-08-01T15:48:12;1.45;;;0.70;;
25615;SDS011;13482;48.234;13.006;2022-08-01T15:50:40;1.20;;;0.60;;
25615;SDS011;13482;48.234;13.006;2022-08-01T15:53:07;1.00;;;0.60;;
25615;SDS011;13482;48.234;13.006;2022-08-01T15:55:35;1.35;;;0.65;;